Time;durP1;ratioP1;P1;durP2;ratioP2;P2;SDS_P1;SDS_P2;PMS_P1;PMS_P2;Temp;Humidity;BMP_temperature;BMP_pressure;BME280_temperature;BME280_humidity;BME280_pressure;Samples;Min_cycle;Max_cycle;Signal;HPM_P1;HPM_P2
2023/07/01 00:00:34;;;;;;;;;2.00;2.00;;;;;21.72;53.81;100715.72;5023908;28;45320;-65
2023/07/01 00:03:00;;;;;;;;;3.00;3.00;;;;;21.86;53.93;100731.78;5032058;28;45855;-64
2023/07/01 00:05:25;;;;;;;;;2.00;2.00;;;;;21.89;54.41;100747.00;5037133;28;45295;-64
2023/07/01 00:07:50;;;;;;;;;1.25;1.25;;;;;21.90;54.92;100740.53;5021661;28;45248;-65
2023/07/01 00:10:15;;;;;;;;;1.25;1.25;;;;;21.82;55.77;100728.44;5021307;28;45611;-64
2023/07/01 00:12:41;;;;;;;;;1.00;1.00;;;;;21.87;55.60;100740.78;5021650;28;45368;-65
2023/07/01 00:15:06;;;;;;;;;1.00;1.00;;;;;21.68;55.92;100709.66;5021402;28;45363;-65
2023/07/01 00:17:32;;;;;;;;;2.25;1.00;;;;;21.74;56.38;100708.31;5020078;28;45490;-64
2023/07/01 00:19:57;;;;;;;;;1.00;1.00;;;;;21.77;56.04;100725.25;5021009;28;46172;-65
2023/07/01 00:22:22;;;;;;;;;2.50;1.50;;;;;21.75;56.05;100721.78;5039701;28;45470;-64
2023/07/01 00:24:48;;;;;;;;;14.25;13.25;;;;;21.84;56.37;100726.47;5022505;28;45644;-64
2023/07/01 00:27:13;;;;;;;;;14.25;11.75;;;;;21.74;56.58;100711.91;5047994;28;45360;-65
2023/07/01 00:29:39;;;;;;;;;8.50;8.00;;;;;21.64;56.71;100698.19;5037517;28;46425;-64
2023/07/01 00:32:04;;;;;;;;;14.25;13.75;;;;;21.76;56.86;100699.03;5021039;28;45402;-65
2023/07/01 00:34:30;;;;;;;;;10.00;9.00;;;;;21.62;56.95;100669.44;5053472;28;45567;-64
2023/07/01 00:36:55;;;;;;;;;3.50;3.50;;;;;21.76;56.79;100693.59;5032703;28;45373;-64
2023/07/01 00:39:20;;;;;;;;;4.75;4.75;;;;;21.83;56.87;100715.72;5036103;28;46073;-64
2023/07/01 00:41:54;;;;;;;;;3.75;3.75;;;;;21.83;57.23;100703.03;5020749;28;45459;-64
2023/07/01 00:44:20;;;;;;;;;4.00;4.00;;;;;21.76;57.13;100700.91;5020990;28;45332;-64
2023/07/01 00:46:46;;;;;;;;;3.00;3.00;;;;;21.78;56.95;100701.63;5021048;28;45415;-64
2023/07/01 00:49:11;;;;;;;;;2.00;2.00;;;;;21.77;56.79;100708.94;5020499;28;46008;-65
2023/07/01 00:51:37;;;;;;;;;3.00;1.75;;;;;21.65;57.05;100683.63;5035995;28;45455;-64
2023/07/01 00:54:03;;;;;;;;;1.50;1.50;;;;;21.65;57.86;100683.63;5020803;28;45537;-65
2023/07/01 00:56:28;;;;;;;;;5.00;3.00;;;;;21.70;57.50;100690.53;5020684;28;45337;-64
2023/07/01 00:58:54;;;;;;;;;2.25;2.25;;;;;21.61;58.35;100681.25;5028207;28;50871;-64
2023/07/01 01:01:29;;;;;;;;;1.50;1.50;;;;;21.68;58.41;100684.34;5028392;28;45367;-64
2023/07/01 01:04:03;;;;;;;;;2.00;2.00;;;;;21.53;58.65;100670.16;5029510;28;45332;-65
2023/07/01 01:06:49;;;;;;;;;1.00;1.00;;;;;21.50;58.94;100675.81;5030499;28;45548;-64
2023/07/01 01:09:17;;;;;;;;;2.00;2.00;;;;;21.52;59.30;100682.88;5020327;28;45296;-64
2023/07/01 01:11:46;;;;;;;;;3.00;2.00;;;;;21.42;59.84;100670.97;5020417;28;45484;-64
2023/07/01 01:14:12;;;;;;;;;1.00;1.00;;;;;21.45;60.11;100676.13;5036048;28;45390;-65
2023/07/01 01:16:40;;;;;;;;;2.25;1.50;;;;;21.43;60.44;100675.41;5020246;28;45530;-65
2023/07/01 01:19:19;;;;;;;;;2.00;2.00;;;;;21.35;59.94;100661.56;5020238;28;45431;-64
2023/07/01 01:21:59;;;;;;;;;2.00;2.00;;;;;21.40;60.98;100671.09;5034636;28;45733;-65
2023/07/01 01:24:28;;;;;;;;;1.00;1.00;;;;;21.21;60.96;100651.81;5026679;28;60945;-65
2023/07/01 01:26:59;;;;;;;;;1.75;1.75;;;;;21.24;61.47;100657.00;5033568;28;45332;-65
2023/07/01 01:29:24;;;;;;;;;7.50;3.75;;;;;21.26;61.61;100666.72;5046424;28;46051;-64
2023/07/01 01:31:50;;;;;;;;;2.25;2.00;;;;;21.25;62.66;100662.31;5034418;28;45290;-64
2023/07/01 01:34:15;;;;;;;;;2.00;2.00;;;;;21.26;62.17;100658.59;5051674;28;45366;-65
2023/07/01 01:36:55;;;;;;;;;3.25;3.00;;;;;21.13;62.54;100644.25;5045329;28;45241;-65
2023/07/01 01:39:26;;;;;;;;;2.25;2.00;;;;;21.22;62.78;100656.25;5043158;28;46333;-64
2023/07/01 01:42:04;;;;;;;;;1.00;1.00;;;;;21.14;63.55;100634.28;5037947;28;46123;-65
2023/07/01 01:44:47;;;;;;;;;2.25;2.25;;;;;21.18;63.86;100649.34;5035711;28;45475;-65
2023/07/01 01:47:18;;;;;;;;;2.75;2.00;;;;;21.14;64.03;100642.44;5020233;28;45801;-65
2023/07/01 01:49:45;;;;;;;;;2.00;2.00;;;;;21.01;64.28;100620.81;5018503;28;45543;-64
2023/07/01 01:52:16;;;;;;;;;2.50;2.50;;;;;21.05;63.96;100631.31;5019899;28;45502;-64
2023/07/01 01:54:45;;;;;;;;;2.00;2.00;;;;;20.84;64.42;100601.28;5036541;28;45405;-65
2023/07/01 01:57:10;;;;;;;;;1.25;1.25;;;;;20.81;64.99;100590.66;5040500;28;45431;-65
2023/07/01 01:59:36;;;;;;;;;2.00;2.00;;;;;20.89;65.02;100603.63;5021831;28;46428;-65
2023/07/01 02:02:01;;;;;;;;;3.00;3.00;;;;;20.94;65.70;100612.28;5026108;28;45396;-65
2023/07/01 02:04:26;;;;;;;;;2.00;2.00;;;;;20.91;65.88;100617.94;5037971;28;45379;-65
2023/07/01 02:06:52;;;;;;;;;2.00;2.00;;;;;20.94;65.61;100622.28;5024332;28;56171;-65
2023/07/01 02:09:17;;;;;;;;;3.75;2.75;;;;;20.86;65.82;100606.59;5019659;28;45341;-64
2023/07/01 02:11:43;;;;;;;;;2.75;2.75;;;;;20.85;66.27;100615.72;5019471;28;45283;-65
2023/07/01 02:14:08;;;;;;;;;0.50;0.50;;;;;20.79;66.62;100605.34;5019741;28;45419;-65
2023/07/01 02:16:36;;;;;;;;;3.00;1.75;;;;;20.73;66.46;100595.81;5019256;28;45417;-65
2023/07/01 02:19:01;;;;;;;;;2.25;2.25;;;;;20.81;67.05;100606.94;5034511;28;47431;-64
2023/07/01 02:21:29;;;;;;;;;1.75;1.75;;;;;20.72;66.83;100597.66;5019404;28;45564;-65
2023/07/01 02:23:56;;;;;;;;;2.00;2.00;;;;;20.75;67.35;100593.00;5025717;28;45434;-65
2023/07/01 02:26:22;;;;;;;;;1.75;1.75;;;;;20.70;67.26;100598.78;5026867;28;45375;-64
2023/07/01 02:28:47;;;;;;;;;1.50;1.50;;;;;20.56;67.10;100575.41;5043236;28;45322;-65
2023/07/01 02:31:16;;;;;;;;;3.00;2.00;;;;;20.67;67.40;100599.88;5024505;28;45362;-65
2023/07/01 02:33:41;;;;;;;;;2.75;1.75;;;;;20.71;68.07;100600.50;5035061;28;45488;-65
2023/07/01 02:36:06;;;;;;;;;2.00;2.00;;;;;20.68;67.72;100596.19;5041562;28;45417;-64
2023/07/01 02:38:32;;;;;;;;;2.50;1.00;;;;;20.64;68.42;100580.28;5019079;28;46318;-65
2023/07/01 02:40:57;;;;;;;;;0.00;0.00;;;;;20.66;68.39;100589.16;5018677;28;52332;-65
2023/07/01 02:43:22;;;;;;;;;1.00;1.00;;;;;20.55;68.09;100562.84;5019232;28;45493;-65
2023/07/01 02:45:48;;;;;;;;;3.00;1.00;;;;;20.64;68.38;100578.41;5019043;28;45466;-64
2023/07/01 02:48:13;;;;;;;;;2.50;1.50;;;;;20.68;68.35;100579.91;5018797;28;53823;-65
2023/07/01 02:54:42;;;;;;;;;1.25;1.25;;;;;20.39;68.21;100530.59;4998784;28;45328;-64
2023/07/01 02:57:50;;;;;;;;;;;;;;;;;;;;;
2023/07/01 03:04:15;;;;;;;;;;;;;;;;;;;;;
2023/07/01 03:07:17;;;;;;;;;;;;;;;;;;;;;
2023/07/01 03:13:22;;;;;;;;;;;;;;;;;;;;;
2023/07/01 03:16:25;;;;;;;;;;;;;;;;;;;;;
2023/07/01 03:19:27;;;;;;;;;;;;;;;;;;;;;
2023/07/01 03:22:28;;;;;;;;;;;;;;;;;;;;;
2023/07/01 03:25:41;;;;;;;;;;;;;;;;;;;;;
2023/07/01 03:38:07;;;;;;;;;;;;;;;;;;;;;
2023/07/01 03:41:44;;;;;;;;;;;;;;;;;;;;;
2023/07/01 03:45:05;;;;;;;;;;;;;;;;;;;;;
2023/07/01 03:48:13;;;;;;;;;;;;;;;;;;;;;
2023/07/01 03:55:01;;;;;;;;;;;;;;;;;;;;;
2023/07/01 03:57:49;;;;;;;;;;;;;;;;;;;;;
2023/07/01 04:11:02;;;;;;;;;;;;;;;;;;;;;
2023/07/01 04:20:32;;;;;;;;;;;;;;;;;;;;;
2023/07/01 04:23:37;;;;;;;;;;;;;;;;;;;;;
2023/07/01 04:33:15;;;;;;;;;;;;;;;;;;;;;
2023/07/01 06:12:27;;;;;;;;;0.00;0.00;;;;;20.64;76.86;100480.78;4640639;22;47475;-61
2023/07/01 06:14:52;;;;;;;;;0.50;0.00;;;;;20.51;76.81;100459.19;5000042;28;45560;-61
2023/07/01 06:17:18;;;;;;;;;0.25;0.25;;;;;20.57;77.58;100465.97;5003599;28;45351;-61
2023/07/01 06:19:43;;;;;;;;;0.00;0.00;;;;;20.45;77.40;100446.09;5011259;28;45606;-61
2023/07/01 06:22:08;;;;;;;;;0.75;0.75;;;;;20.50;77.42;100453.88;4992887;28;46995;-61
2023/07/01 06:24:34;;;;;;;;;0.50;0.50;;;;;20.51;77.88;100448.34;5001111;28;45456;-61
2023/07/01 06:26:59;;;;;;;;;1.00;1.00;;;;;20.55;77.96;100448.97;5010662;28;45289;-61
2023/07/01 06:29:25;;;;;;;;;0.00;0.00;;;;;20.65;78.31;100465.41;4983779;28;45698;-61
2023/07/01 06:31:50;;;;;;;;;0.00;0.00;;;;;20.51;78.29;100442.91;4992993;28;47318;-61
2023/07/01 06:34:17;;;;;;;;;0.00;0.00;;;;;20.70;78.71;100472.19;5005748;28;45519;-61
2023/07/01 06:36:42;;;;;;;;;0.00;0.00;;;;;20.72;78.71;100469.34;4990216;28;45403;-61
2023/07/01 06:39:08;;;;;;;;;0.00;0.00;;;;;20.61;78.96;100443.03;5012607;28;45409;-61
2023/07/01 06:41:33;;;;;;;;;1.25;1.00;;;;;20.51;78.76;100433.91;5010964;28;45408;-61
2023/07/01 06:43:59;;;;;;;;;0.50;0.50;;;;;20.50;78.75;100434.91;5005902;28;45480;-61
2023/07/01 06:46:25;;;;;;;;;0.25;0.25;;;;;20.51;79.09;100426.66;5006188;28;45387;-61
2023/07/01 06:48:51;;;;;;;;;0.00;0.00;;;;;20.63;78.89;100442.94;5012382;28;45618;-61
2023/07/01 06:51:16;;;;;;;;;0.00;0.00;;;;;20.53;78.85;100424.69;5009987;28;48501;-61
2023/07/01 06:53:41;;;;;;;;;0.00;0.00;;;;;20.75;78.58;100457.38;5005595;28;45306;-61
2023/07/01 06:56:07;;;;;;;;;0.00;0.00;;;;;20.76;78.71;100445.53;5007022;28;45467;-61
2023/07/01 06:58:33;;;;;;;;;1.50;0.00;;;;;20.83;79.49;100446.78;5012359;28;45510;-61
2023/07/01 07:00:58;;;;;;;;;1.50;1.00;;;;;20.68;79.65;100425.34;4981541;28;46869;-61
2023/07/01 07:03:24;;;;;;;;;0.00;0.00;;;;;20.85;79.46;100437.53;5009749;28;45358;-61
2023/07/01 07:05:52;;;;;;;;;0.00;0.00;;;;;20.93;79.83;100445.03;5003312;28;45766;-61
2023/07/01 07:08:18;;;;;;;;;0.50;0.00;;;;;20.96;79.90;100454.78;5007310;28;45473;-61
2023/07/01 07:10:43;;;;;;;;;0.00;0.00;;;;;20.96;79.36;100452.09;5012107;28;46213;-62
2023/07/01 07:13:10;;;;;;;;;1.00;0.00;;;;;20.96;79.80;100452.94;5009335;28;45386;-61
2023/07/01 07:15:35;;;;;;;;;0.00;0.00;;;;;21.03;79.97;100456.00;5005573;28;45408;-61
2023/07/01 07:18:01;;;;;;;;;0.00;0.00;;;;;21.03;79.52;100453.31;5007039;28;45618;-61
2023/07/01 07:20:26;;;;;;;;;2.25;1.00;;;;;21.04;79.73;100455.91;4994124;28;46416;-61
2023/07/01 07:22:51;;;;;;;;;0.00;0.00;;;;;21.01;79.73;100444.44;5008286;28;45283;-61
2023/07/01 07:25:17;;;;;;;;;0.50;0.50;;;;;21.09;80.05;100450.09;4998643;28;45339;-61
2023/07/01 07:27:46;;;;;;;;;0.00;0.00;;;;;21.08;79.48;100446.53;5007619;28;45326;-61
2023/07/01 07:30:13;;;;;;;;;0.00;0.00;;;;;21.13;79.63;100456.13;5004479;28;45406;-61
2023/07/01 07:32:38;;;;;;;;;1.00;0.00;;;;;21.16;79.74;100448.59;5006068;28;45369;-61
2023/07/01 07:35:04;;;;;;;;;0.50;0.50;;;;;21.16;79.75;100453.19;5011888;28;45325;-61
2023/07/01 07:37:29;;;;;;;;;0.75;0.75;;;;;21.13;79.14;100453.41;5013529;28;45368;-61
2023/07/01 07:39:55;;;;;;;;;0.75;0.75;;;;;21.16;79.49;100451.31;5008838;28;45459;-61
2023/07/01 07:42:21;;;;;;;;;0.00;0.00;;;;;21.21;79.62;100453.66;5008170;28;45498;-61
2023/07/01 07:44:46;;;;;;;;;1.00;0.00;;;;;21.16;79.48;100442.31;5015388;28;45312;-61
2023/07/01 07:47:12;;;;;;;;;0.00;0.00;;;;;21.20;79.73;100450.09;5015021;28;45359;-61
2023/07/01 07:49:37;;;;;;;;;0.00;0.00;;;;;21.26;79.84;100455.00;5008285;28;46102;-61
2023/07/01 07:52:02;;;;;;;;;0.00;0.00;;;;;21.32;80.01;100453.66;5008846;28;45297;-61
2023/07/01 07:54:28;;;;;;;;;0.00;0.00;;;;;21.31;80.17;100449.19;5015159;28;45505;-61
2023/07/01 07:56:58;;;;;;;;;0.25;0.25;;;;;21.35;80.24;100447.09;5015063;28;45603;-61
2023/07/01 07:59:27;;;;;;;;;0.00;0.00;;;;;21.41;78.85;100444.72;4989238;28;45568;-61
2023/07/01 08:01:54;;;;;;;;;0.00;0.00;;;;;21.46;79.29;100442.50;5012671;28;45301;-61
2023/07/01 08:04:19;;;;;;;;;0.00;0.00;;;;;21.52;79.05;100443.91;5002392;28;45383;-61
2023/07/01 08:06:44;;;;;;;;;0.50;0.50;;;;;21.52;78.51;100440.28;5013973;28;45381;-61
2023/07/01 08:09:10;;;;;;;;;1.00;1.00;;;;;21.54;78.09;100431.03;5008259;28;45538;-61
2023/07/01 08:11:35;;;;;;;;;0.00;0.00;;;;;21.58;78.65;100432.50;5009209;28;45428;-61
2023/07/01 08:14:00;;;;;;;;;0.00;0.00;;;;;21.63;78.33;100440.25;4996952;28;45568;-61
2023/07/01 08:16:25;;;;;;;;;0.00;0.00;;;;;21.62;78.23;100428.53;5013479;28;45877;-61
2023/07/01 08:18:51;;;;;;;;;1.00;1.00;;;;;21.67;78.72;100441.75;5007901;28;45416;-61
2023/07/01 08:21:17;;;;;;;;;0.50;0.50;;;;;21.67;77.55;100433.59;5009247;28;45364;-61
2023/07/01 08:23:42;;;;;;;;;0.00;0.00;;;;;21.68;77.05;100435.31;5010706;28;45327;-61
2023/07/01 08:26:08;;;;;;;;;0.25;0.25;;;;;21.73;77.29;100441.22;5012444;28;45609;-61
2023/07/01 08:28:33;;;;;;;;;0.00;0.00;;;;;21.67;76.38;100430.00;5002268;28;49518;-61
2023/07/01 08:30:58;;;;;;;;;0.25;0.25;;;;;21.73;76.89;100435.78;5013633;28;45337;-61
2023/07/01 08:33:25;;;;;;;;;1.50;0.00;;;;;21.79;76.34;100442.56;5008040;28;45412;-61
2023/07/01 08:35:50;;;;;;;;;0.75;0.75;;;;;21.84;76.87;100443.91;4991298;28;45574;-61
2023/07/01 08:38:16;;;;;;;;;0.00;0.00;;;;;21.88;76.43;100436.34;5014504;28;46281;-61
2023/07/01 08:40:42;;;;;;;;;0.00;0.00;;;;;21.92;76.49;100435.09;5013632;28;45670;-61
2023/07/01 08:43:10;;;;;;;;;0.00;0.00;;;;;21.94;76.38;100440.41;5007889;28;45396;-61
2023/07/01 08:45:38;;;;;;;;;2.00;1.00;;;;;22.01;77.53;100438.88;5008005;28;45356;-61
2023/07/01 08:48:05;;;;;;;;;0.00;0.00;;;;;22.02;77.04;100430.59;5007725;28;46953;-61
2023/07/01 08:51:09;;;;;;;;;0.00;0.00;;;;;22.09;76.30;100435.53;5007697;28;45668;-61
2023/07/01 08:53:36;;;;;;;;;0.50;0.50;;;;;22.08;75.99;100442.78;5009041;28;45488;-61
2023/07/01 08:56:03;;;;;;;;;0.00;0.00;;;;;22.05;76.33;100445.75;5019948;28;45340;-61
2023/07/01 08:58:29;;;;;;;;;1.00;0.00;;;;;22.07;76.45;100460.13;4990394;28;47212;-61
2023/07/01 09:00:56;;;;;;;;;0.00;0.00;;;;;21.97;77.23;100449.16;4989748;28;45329;-61
2023/07/01 09:03:22;;;;;;;;;1.00;0.00;;;;;21.94;79.24;100432.25;4993966;28;45483;-61
2023/07/01 09:05:47;;;;;;;;;0.00;0.00;;;;;22.02;77.13;100454.22;5004987;28;45431;-61
2023/07/01 09:08:12;;;;;;;;;0.00;0.00;;;;;21.95;78.37;100433.97;5009574;28;46586;-61
2023/07/01 09:10:38;;;;;;;;;0.00;0.00;;;;;22.02;78.57;100455.06;5013888;28;45512;-61
2023/07/01 09:13:13;;;;;;;;;0.00;0.00;;;;;22.04;77.20;100451.38;4994375;28;45431;-61
2023/07/01 09:15:44;;;;;;;;;2.25;2.25;;;;;22.07;78.00;100446.53;5007111;28;45372;-61
2023/07/01 09:18:29;;;;;;;;;4.75;3.75;;;;;22.09;77.40;100452.69;5007155;28;47005;-61
2023/07/01 09:20:56;;;;;;;;;5.25;4.00;;;;;22.11;77.21;100447.13;5010439;28;45334;-61
2023/07/01 09:23:32;;;;;;;;;1.00;1.00;;;;;22.13;76.55;100443.25;5010311;28;45328;-61
2023/07/01 09:26:17;;;;;;;;;1.50;1.50;;;;;22.15;77.80;100452.16;5011933;28;45477;-61
2023/07/01 09:28:44;;;;;;;;;2.00;2.00;;;;;22.14;76.81;100441.41;5000470;28;45419;-61
2023/07/01 09:31:12;;;;;;;;;2.00;2.00;;;;;22.17;76.04;100450.16;5013697;28;45539;-61
2023/07/01 09:33:39;;;;;;;;;1.00;1.00;;;;;22.18;75.66;100442.88;5008505;28;45333;-61
2023/07/01 09:36:06;;;;;;;;;0.00;0.00;;;;;22.11;74.74;100426.22;5006925;28;45468;-61
2023/07/01 09:38:32;;;;;;;;;1.00;1.00;;;;;22.19;74.67;100425.56;4994033;28;47398;-61
2023/07/01 09:41:36;;;;;;;;;2.00;2.00;;;;;22.27;74.55;100452.06;5000265;28;45901;-61
2023/07/01 09:44:13;;;;;;;;;1.00;0.50;;;;;22.25;73.76;100444.06;4945783;28;45685;-61
2023/07/01 09:46:46;;;;;;;;;2.00;0.75;;;;;22.25;73.40;100448.63;4950564;28;45723;-61
2023/07/01 09:49:11;;;;;;;;;0.00;0.00;;;;;22.20;72.86;100436.31;4956948;28;47186;-61
2023/07/01 09:51:50;;;;;;;;;1.75;1.75;;;;;22.30;74.37;100449.13;5009245;28;45563;-61
2023/07/01 09:54:25;;;;;;;;;0.00;0.00;;;;;22.31;73.73;100443.56;5013368;28;45536;-61
2023/07/01 09:56:54;;;;;;;;;2.75;2.75;;;;;22.33;72.82;100448.88;5012657;28;45475;-61
2023/07/01 09:59:20;;;;;;;;;0.00;0.00;;;;;22.25;72.08;100432.31;4997356;28;46298;-61
2023/07/01 10:01:47;;;;;;;;;1.75;1.75;;;;;22.30;71.87;100428.25;4991403;28;45432;-61
2023/07/01 10:04:12;;;;;;;;;6.75;6.25;;;;;22.34;72.00;100429.72;5010111;28;45376;-61
2023/07/01 10:06:42;;;;;;;;;3.75;3.75;;;;;22.40;71.36;100439.19;5011294;28;45415;-61
2023/07/01 10:09:07;;;;;;;;;2.00;2.00;;;;;22.37;71.48;100428.59;5006196;28;46210;-61
2023/07/01 10:11:34;;;;;;;;;1.00;1.00;;;;;22.45;70.75;100434.19;5007698;28;45314;-61
2023/07/01 10:14:03;;;;;;;;;1.00;1.00;;;;;22.49;69.83;100437.53;5013087;28;45544;-61
2023/07/01 10:16:29;;;;;;;;;0.75;0.75;;;;;22.53;70.53;100444.41;5012178;28;45512;-61
2023/07/01 10:18:54;;;;;;;;;3.50;1.00;;;;;22.57;69.98;100440.44;4999976;28;45505;-61
2023/07/01 10:21:22;;;;;;;;;1.25;1.25;;;;;22.60;69.53;100447.47;4999842;28;45333;-61
2023/07/01 10:23:48;;;;;;;;;3.75;2.50;;;;;22.64;69.12;100447.06;5015170;28;45328;-61
2023/07/01 10:26:33;;;;;;;;;1.00;1.00;;;;;22.69;68.70;100457.53;5006596;28;45250;-61
2023/07/01 10:28:59;;;;;;;;;1.50;1.00;;;;;22.72;68.26;100449.97;4981806;28;47417;-61
2023/07/01 10:31:24;;;;;;;;;2.00;2.00;;;;;22.77;68.46;100446.84;5012838;28;45314;-61
2023/07/01 10:33:50;;;;;;;;;1.75;1.75;;;;;22.82;68.32;100447.31;5008377;28;45369;-61
2023/07/01 10:36:18;;;;;;;;;1.00;1.00;;;;;22.84;68.42;100425.41;5006003;28;45570;-61
2023/07/01 10:38:44;;;;;;;;;2.00;2.00;;;;;22.93;67.49;100438.16;5010416;28;46238;-61
2023/07/01 10:41:10;;;;;;;;;1.00;1.00;;;;;22.89;66.58;100423.97;5011371;28;45563;-61
2023/07/01 10:43:37;;;;;;;;;2.25;2.25;;;;;22.96;66.45;100427.00;5008576;28;45486;-61
2023/07/01 10:46:23;;;;;;;;;2.00;2.00;;;;;23.02;66.53;100429.19;5006063;28;45305;-61
2023/07/01 10:49:04;;;;;;;;;1.00;1.00;;;;;23.11;65.85;100443.84;5006732;28;46047;-61
2023/07/01 10:51:51;;;;;;;;;1.00;1.00;;;;;23.14;64.90;100443.59;4994813;28;45424;-61
2023/07/01 10:54:35;;;;;;;;;4.50;1.50;;;;;23.18;64.60;100438.72;5005256;28;45327;-61
2023/07/01 10:57:14;;;;;;;;;1.25;1.25;;;;;23.15;64.47;100431.69;5005717;28;45385;-61
2023/07/01 10:59:40;;;;;;;;;2.00;2.00;;;;;23.17;63.68;100434.25;5010325;28;47100;-61
2023/07/01 11:02:08;;;;;;;;;3.00;2.50;;;;;23.22;63.76;100441.03;4999809;28;45368;-61
2023/07/01 11:05:03;;;;;;;;;1.50;1.50;;;;;23.23;63.21;100434.56;5008441;28;45504;-61
2023/07/01 11:07:28;;;;;;;;;1.25;1.25;;;;;23.22;63.54;100438.31;4979228;28;45323;-61
2023/07/01 11:09:55;;;;;;;;;1.00;1.00;;;;;23.24;63.13;100433.59;5010954;28;45491;-61
2023/07/01 11:12:21;;;;;;;;;4.25;2.00;;;;;23.25;62.88;100429.84;5006922;28;45554;-61
2023/07/01 11:14:46;;;;;;;;;5.00;4.00;;;;;23.29;62.48;100435.91;5010584;28;45333;-61
2023/07/01 11:17:16;;;;;;;;;2.00;2.00;;;;;23.28;62.15;100435.00;5015557;28;45657;-61
2023/07/01 11:19:44;;;;;;;;;1.00;1.00;;;;;23.35;62.40;100440.75;5014621;28;46156;-61
2023/07/01 11:22:11;;;;;;;;;2.50;2.00;;;;;23.39;61.64;100441.34;4991216;28;45620;-61
2023/07/01 11:24:37;;;;;;;;;0.50;0.50;;;;;23.35;60.86;100420.84;5018378;28;45359;-61
2023/07/01 11:27:05;;;;;;;;;1.00;1.00;;;;;23.41;61.31;100442.94;5002301;28;45268;-61
2023/07/01 11:29:30;;;;;;;;;2.00;1.75;;;;;23.43;60.54;100437.34;4984624;28;46236;-61
2023/07/01 11:32:04;;;;;;;;;1.25;1.25;;;;;23.39;61.15;100422.28;5015605;28;45388;-61
2023/07/01 11:34:30;;;;;;;;;2.00;2.00;;;;;23.46;61.25;100437.94;4997599;28;45301;-61
2023/07/01 11:36:57;;;;;;;;;4.00;3.00;;;;;23.48;60.92;100437.78;5010298;28;45459;-61
2023/07/01 11:39:24;;;;;;;;;1.50;1.25;;;;;23.50;61.10;100441.22;5007398;28;47262;-61
2023/07/01 11:41:59;;;;;;;;;2.75;1.25;;;;;23.53;60.96;100437.38;5013629;28;45432;-61
2023/07/01 11:44:27;;;;;;;;;1.00;1.00;;;;;23.58;60.32;100445.97;5002197;28;45376;-61
2023/07/01 11:46:53;;;;;;;;;1.50;1.00;;;;;23.59;60.07;100439.50;5012300;28;45335;-61
2023/07/01 11:49:21;;;;;;;;;1.00;1.00;;;;;23.60;59.36;100446.69;5008229;28;47510;-61
2023/07/01 11:51:49;;;;;;;;;0.25;0.25;;;;;23.58;59.99;100455.00;5011611;28;45654;-61
2023/07/01 11:54:18;;;;;;;;;1.75;0.50;;;;;23.58;59.85;100465.91;5015410;28;45404;-61
2023/07/01 11:56:44;;;;;;;;;1.00;1.00;;;;;23.59;60.28;100461.31;5012933;28;45464;-61
2023/07/01 11:59:10;;;;;;;;;0.00;0.00;;;;;23.61;59.66;100465.63;5002284;28;46457;-61
2023/07/01 12:01:40;;;;;;;;;0.75;0.75;;;;;23.62;59.61;100467.34;4991881;28;45444;-61
2023/07/01 12:04:16;;;;;;;;;0.00;0.00;;;;;23.61;59.75;100454.72;4994044;28;45498;-61
2023/07/01 12:06:42;;;;;;;;;1.00;0.25;;;;;23.64;59.50;100457.16;5013639;28;45498;-61
2023/07/01 12:09:08;;;;;;;;;1.00;1.00;;;;;23.65;59.96;100474.38;5008302;28;45330;-61
2023/07/01 12:11:47;;;;;;;;;1.00;1.00;;;;;23.66;60.28;100471.50;5009201;28;45501;-61
2023/07/01 12:14:19;;;;;;;;;1.00;0.75;;;;;23.64;59.40;100469.94;4996744;28;45388;-61
2023/07/01 12:16:49;;;;;;;;;1.00;1.00;;;;;23.72;59.02;100486.41;5007135;28;45508;-61
2023/07/01 12:19:15;;;;;;;;;0.00;0.00;;;;;23.67;58.53;100485.97;4978676;28;47392;-61
2023/07/01 12:21:43;;;;;;;;;0.00;0.00;;;;;23.64;58.09;100484.41;4996831;28;45723;-61
2023/07/01 12:24:31;;;;;;;;;0.75;0.75;;;;;23.72;58.14;100505.50;5001262;28;45885;-61
2023/07/01 12:26:59;;;;;;;;;0.50;0.50;;;;;23.70;57.69;100498.47;5014853;28;45622;-61
2023/07/01 12:29:25;;;;;;;;;1.00;0.00;;;;;23.68;57.46;100499.47;5001375;28;45447;-61
2023/07/01 12:31:55;;;;;;;;;0.00;0.00;;;;;23.66;56.83;100495.19;5014768;28;45421;-61
2023/07/01 12:34:20;;;;;;;;;1.50;1.00;;;;;23.59;57.38;100491.28;5001195;28;45657;-61
2023/07/01 12:36:47;;;;;;;;;0.25;0.25;;;;;23.65;57.75;100507.06;5008208;28;45391;-61
2023/07/01 12:39:17;;;;;;;;;0.25;0.00;;;;;23.67;58.34;100505.94;5007884;28;45448;-61
2023/07/01 12:41:54;;;;;;;;;0.00;0.00;;;;;23.68;59.11;100510.38;5013545;28;45680;-61
2023/07/01 12:44:19;;;;;;;;;1.00;1.00;;;;;23.66;58.60;100501.47;5013809;28;45497;-61
2023/07/01 12:46:45;;;;;;;;;1.00;1.00;;;;;23.72;58.63;100516.41;5010471;28;45266;-61
2023/07/01 12:49:11;;;;;;;;;0.00;0.00;;;;;23.62;59.06;100491.00;5007634;28;46506;-61
2023/07/01 12:51:37;;;;;;;;;1.25;0.25;;;;;23.73;58.17;100520.84;5011530;28;45504;-61
2023/07/01 12:54:03;;;;;;;;;1.50;1.00;;;;;23.67;57.84;100503.22;5014344;28;45408;-61
2023/07/01 12:56:29;;;;;;;;;1.75;1.00;;;;;23.61;57.86;100489.28;5010831;28;45607;-61
2023/07/01 12:58:54;;;;;;;;;0.25;0.25;;;;;23.70;57.31;100498.47;5005517;28;46988;-60
2023/07/01 13:01:19;;;;;;;;;1.75;1.00;;;;;23.66;57.85;100492.47;4988941;28;45385;-61
2023/07/01 13:03:45;;;;;;;;;2.00;2.00;;;;;23.70;58.02;100498.47;5011252;28;45442;-61
2023/07/01 13:06:26;;;;;;;;;2.00;1.00;;;;;23.73;58.06;100500.94;5008583;28;45389;-61
2023/07/01 13:08:55;;;;;;;;;3.25;3.25;;;;;23.71;58.25;100498.34;5007542;28;45421;-61
2023/07/01 13:11:22;;;;;;;;;2.50;2.50;;;;;23.68;57.88;100496.75;5010110;28;45489;-61
2023/07/01 13:13:50;;;;;;;;;1.50;1.50;;;;;23.75;57.08;100513.38;5014024;28;45383;-61
2023/07/01 13:16:25;;;;;;;;;2.00;2.00;;;;;23.74;56.93;100511.69;5012081;28;45496;-61
2023/07/01 13:18:50;;;;;;;;;2.75;2.00;;;;;23.64;56.45;100500.75;5006952;28;46091;-61
2023/07/01 13:21:15;;;;;;;;;1.50;1.50;;;;;23.67;56.24;100505.94;5007667;28;55337;-61
2023/07/01 13:23:41;;;;;;;;;2.00;1.50;;;;;23.65;56.07;100499.75;5015846;28;46829;-61
2023/07/01 13:26:06;;;;;;;;;2.00;2.00;;;;;23.65;56.04;100497.03;5007713;28;54358;-61
2023/07/01 13:28:31;;;;;;;;;3.00;2.00;;;;;23.69;55.81;100500.34;5008968;28;46037;-61
2023/07/01 13:30:57;;;;;;;;;3.00;3.00;;;;;23.75;56.10;100501.63;5012837;28;46686;-61
2023/07/01 13:33:23;;;;;;;;;2.00;2.00;;;;;23.75;55.89;100501.63;5006886;28;45408;-61
2023/07/01 13:35:51;;;;;;;;;2.00;2.00;;;;;23.74;56.06;100489.88;5006813;28;45429;-61
2023/07/01 13:38:17;;;;;;;;;3.00;3.00;;;;;23.83;55.50;100499.97;5013558;28;46169;-61
2023/07/01 13:40:43;;;;;;;;;4.00;2.00;;;;;23.78;55.37;100474.13;5013356;28;45281;-61
2023/07/01 13:43:15;;;;;;;;;2.75;2.75;;;;;23.82;54.53;100497.38;4987525;28;45253;-61
2023/07/01 13:45:40;;;;;;;;;1.00;1.00;;;;;23.78;53.73;100490.47;5013481;28;45459;-61
2023/07/01 13:48:06;;;;;;;;;4.00;2.00;;;;;23.86;53.27;100499.69;5008006;28;45509;-61
2023/07/01 13:50:31;;;;;;;;;4.00;2.00;;;;;23.86;54.09;100507.00;5006460;28;45296;-61
2023/07/01 13:52:58;;;;;;;;;3.00;2.50;;;;;23.89;53.87;100493.09;5012550;28;45399;-61
2023/07/01 13:55:24;;;;;;;;;4.25;3.50;;;;;23.90;52.97;100502.97;5012965;28;45456;-61
2023/07/01 13:57:52;;;;;;;;;2.00;2.00;;;;;23.92;53.16;100503.69;5008021;28;46042;-61
2023/07/01 14:00:34;;;;;;;;;1.50;1.50;;;;;23.97;53.07;100500.53;5004964;28;45323;-61
2023/07/01 14:02:59;;;;;;;;;1.00;1.00;;;;;23.96;52.59;100482.50;4988238;28;45347;-61
2023/07/01 14:05:24;;;;;;;;;3.25;2.25;;;;;23.99;52.41;100485.78;5000963;28;45498;-61
2023/07/01 14:07:57;;;;;;;;;2.00;2.00;;;;;24.00;52.33;100490.22;5011658;28;45405;-61
2023/07/01 14:10:32;;;;;;;;;2.00;2.00;;;;;23.99;52.25;100484.91;4999848;28;45570;-61
2023/07/01 14:12:59;;;;;;;;;2.50;1.00;;;;;23.94;52.02;100470.84;5010001;28;45386;-61
2023/07/01 14:15:33;;;;;;;;;2.00;2.00;;;;;24.00;51.97;100490.22;5006318;28;45266;-60
2023/07/01 14:17:58;;;;;;;;;1.00;1.00;;;;;24.05;52.34;100492.50;4990027;28;47553;-61
2023/07/01 14:20:24;;;;;;;;;2.75;2.00;;;;;24.04;51.83;100499.84;5012268;28;53830;-61
2023/07/01 14:22:57;;;;;;;;;3.00;1.50;;;;;24.09;51.67;100493.09;5009109;28;45305;-61
2023/07/01 14:25:31;;;;;;;;;2.00;1.25;;;;;24.00;51.48;100479.31;5012842;28;45586;-61
2023/07/01 14:28:00;;;;;;;;;1.50;1.50;;;;;24.04;51.55;100475.31;5007508;28;46244;-61